sensor_id;sensor_type;location;lat;lon;timestamp;temperature;humidity
57843;DHT22;43673;51.058;3.734;2023-04-06T00:01:55;11.20;80.10
57843;DHT22;43673;51.058;3.734;2023-04-06T00:04:21;11.10;81.00
57843;DHT22;43673;51.058;3.734;2023-04-06T00:06:47;11.20;81.40
57843;DHT22;43673;51.058;3.734;2023-04-06T00:09:13;11.10;81.90
57843;DHT22;43673;51.058;3.734;2023-04-06T00:11:39;11.00;82.40
57843;DHT22;43673;51.058;3.734;2023-04-06T00:14:05;11.00;83.20
57843;DHT22;43673;51.058;3.734;2023-04-06T00:16:30;11.00;83.70
57843;DHT22;43673;51.058;3.734;2023-04-06T00:18:56;11.00;84.40
57843;DHT22;43673;51.058;3.734;2023-04-06T00:21:22;11.00;85.10
57843;DHT22;43673;51.058;3.734;2023-04-06T00:23:48;10.90;85.40
57843;DHT22;43673;51.058;3.734;2023-04-06T00:26:13;10.90;85.70
57843;DHT22;43673;51.058;3.734;2023-04-06T00:28:39;11.00;86.50
57843;DHT22;43673;51.058;3.734;2023-04-06T00:31:05;10.90;87.20
57843;DHT22;43673;51.058;3.734;2023-04-06T00:33:31;10.90;87.50
57843;DHT22;43673;51.058;3.734;2023-04-06T00:35:57;10.90;87.60
57843;DHT22;43673;51.058;3.734;2023-04-06T00:38:23;11.00;88.30
57843;DHT22;43673;51.058;3.734;2023-04-06T00:40:49;11.00;88.70
57843;DHT22;43673;51.058;3.734;2023-04-06T00:43:15;11.00;89.20
57843;DHT22;43673;51.058;3.734;2023-04-06T00:45:42;11.00;89.50
57843;DHT22;43673;51.058;3.734;2023-04-06T00:48:08;11.00;89.70
57843;DHT22;43673;51.058;3.734;2023-04-06T00:50:35;11.00;89.80
57843;DHT22;43673;51.058;3.734;2023-04-06T00:53:01;11.00;89.90
57843;DHT22;43673;51.058;3.734;2023-04-06T00:55:27;11.00;90.10
57843;DHT22;43673;51.058;3.734;2023-04-06T00:57:54;10.80;90.40
57843;DHT22;43673;51.058;3.734;2023-04-06T01:00:20;10.90;90.50
57843;DHT22;43673;51.058;3.734;2023-04-06T01:02:46;11.00;90.80
57843;DHT22;43673;51.058;3.734;2023-04-06T01:05:13;11.00;91.00
57843;DHT22;43673;51.058;3.734;2023-04-06T01:07:39;10.90;91.30
57843;DHT22;43673;51.058;3.734;2023-04-06T01:10:05;10.90;91.50
57843;DHT22;43673;51.058;3.734;2023-04-06T01:12:31;10.80;91.90
57843;DHT22;43673;51.058;3.734;2023-04-06T01:14:57;10.90;92.20
57843;DHT22;43673;51.058;3.734;2023-04-06T01:17:22;11.00;92.40
57843;DHT22;43673;51.058;3.734;2023-04-06T01:19:48;10.90;92.70
57843;DHT22;43673;51.058;3.734;2023-04-06T01:22:17;10.90;93.00
57843;DHT22;43673;51.058;3.734;2023-04-06T01:24:43;10.90;93.40
57843;DHT22;43673;51.058;3.734;2023-04-06T01:27:09;10.80;93.80
57843;DHT22;43673;51.058;3.734;2023-04-06T01:29:35;10.90;94.20
57843;DHT22;43673;51.058;3.734;2023-04-06T01:32:01;10.80;94.50
57843;DHT22;43673;51.058;3.734;2023-04-06T01:34:26;10.80;94.80
57843;DHT22;43673;51.058;3.734;2023-04-06T01:36:52;10.80;95.30
57843;DHT22;43673;51.058;3.734;2023-04-06T01:39:19;10.80;95.40
57843;DHT22;43673;51.058;3.734;2023-04-06T01:41:45;10.80;95.90
57843;DHT22;43673;51.058;3.734;2023-04-06T01:44:15;10.70;96.20
57843;DHT22;43673;51.058;3.734;2023-04-06T01:46:41;10.70;96.50
57843;DHT22;43673;51.058;3.734;2023-04-06T01:49:07;10.60;96.80
57843;DHT22;43673;51.058;3.734;2023-04-06T01:51:33;10.80;97.10
57843;DHT22;43673;51.058;3.734;2023-04-06T01:53:59;10.60;97.40
57843;DHT22;43673;51.058;3.734;2023-04-06T01:56:24;10.60;97.70
57843;DHT22;43673;51.058;3.734;2023-04-06T01:58:50;10.60;98.10
57843;DHT22;43673;51.058;3.734;2023-04-06T02:01:17;10.60;98.60
57843;DHT22;43673;51.058;3.734;2023-04-06T02:03:42;10.60;99.10
57843;DHT22;43673;51.058;3.734;2023-04-06T02:06:08;10.60;99.30
57843;DHT22;43673;51.058;3.734;2023-04-06T02:08:34;10.60;99.50
57843;DHT22;43673;51.058;3.734;2023-04-06T02:11:00;10.60;99.80
57843;DHT22;43673;51.058;3.734;2023-04-06T02:13:25;10.60;99.90
57843;DHT22;43673;51.058;3.734;2023-04-06T02:15:51;10.60;99.90
57843;DHT22;43673;51.058;3.734;2023-04-06T02:18:18;10.70;99.90
57843;DHT22;43673;51.058;3.734;2023-04-06T02:20:44;10.70;99.90
57843;DHT22;43673;51.058;3.734;2023-04-06T02:23:10;10.70;99.90
57843;DHT22;43673;51.058;3.734;2023-04-06T02:25:36;10.70;99.90
57843;DHT22;43673;51.058;3.734;2023-04-06T02:28:02;10.70;99.90
57843;DHT22;43673;51.058;3.734;2023-04-06T02:30:28;10.70;99.90
57843;DHT22;43673;51.058;3.734;2023-04-06T02:32:54;10.70;99.90
57843;DHT22;43673;51.058;3.734;2023-04-06T02:35:21;10.70;99.90
57843;DHT22;43673;51.058;3.734;2023-04-06T02:37:46;10.70;99.90
57843;DHT22;43673;51.058;3.734;2023-04-06T02:40:14;10.70;99.90
57843;DHT22;43673;51.058;3.734;2023-04-06T02:42:40;10.70;99.90
57843;DHT22;43673;51.058;3.734;2023-04-06T02:45:06;10.70;99.90
57843;DHT22;43673;51.058;3.734;2023-04-06T02:47:33;10.70;99.90
57843;DHT22;43673;51.058;3.734;2023-04-06T02:49:59;10.70;99.90
57843;DHT22;43673;51.058;3.734;2023-04-06T02:52:25;10.70;99.90
57843;DHT22;43673;51.058;3.734;2023-04-06T02:54:50;10.70;99.90
57843;DHT22;43673;51.058;3.734;2023-04-06T02:57:16;10.60;99.90
57843;DHT22;43673;51.058;3.734;2023-04-06T02:59:42;10.60;99.90
57843;DHT22;43673;51.058;3.734;2023-04-06T03:02:08;10.60;99.90
57843;DHT22;43673;51.058;3.734;2023-04-06T03:04:34;10.50;99.90
57843;DHT22;43673;51.058;3.734;2023-04-06T03:07:00;10.50;99.90
57843;DHT22;43673;51.058;3.734;2023-04-06T03:09:26;10.40;99.90
57843;DHT22;43673;51.058;3.734;2023-04-06T03:11:52;10.50;99.90
57843;DHT22;43673;51.058;3.734;2023-04-06T03:14:18;10.40;99.90
57843;DHT22;43673;51.058;3.734;2023-04-06T03:16:47;10.40;99.90
57843;DHT22;43673;51.058;3.734;2023-04-06T03:19:13;10.30;99.90
57843;DHT22;43673;51.058;3.734;2023-04-06T03:21:39;10.30;99.90
57843;DHT22;43673;51.058;3.734;2023-04-06T03:24:05;10.30;99.90
57843;DHT22;43673;51.058;3.734;2023-04-06T03:26:31;10.20;99.90
57843;DHT22;43673;51.058;3.734;2023-04-06T03:28:57;10.20;99.90
57843;DHT22;43673;51.058;3.734;2023-04-06T03:31:23;10.20;99.90
57843;DHT22;43673;51.058;3.734;2023-04-06T03:33:48;10.20;99.90
57843;DHT22;43673;51.058;3.734;2023-04-06T03:36:14;10.20;99.90
57843;DHT22;43673;51.058;3.734;2023-04-06T03:38:40;10.20;99.90
57843;DHT22;43673;51.058;3.734;2023-04-06T03:41:06;10.10;99.90
57843;DHT22;43673;51.058;3.734;2023-04-06T03:43:31;10.10;99.90
57843;DHT22;43673;51.058;3.734;2023-04-06T03:45:57;10.10;99.90
57843;DHT22;43673;51.058;3.734;2023-04-06T03:48:23;10.10;99.90
57843;DHT22;43673;51.058;3.734;2023-04-06T03:50:48;10.10;99.90
57843;DHT22;43673;51.058;3.734;2023-04-06T03:53:14;10.10;99.90
57843;DHT22;43673;51.058;3.734;2023-04-06T03:55:40;10.10;99.90
57843;DHT22;43673;51.058;3.734;2023-04-06T03:58:06;10.20;99.90
57843;DHT22;43673;51.058;3.734;2023-04-06T04:00:32;10.10;99.90
57843;DHT22;43673;51.058;3.734;2023-04-06T04:02:58;10.10;99.90
57843;DHT22;43673;51.058;3.734;2023-04-06T04:05:24;10.10;99.90
57843;DHT22;43673;51.058;3.734;2023-04-06T04:07:53;10.10;99.90
57843;DHT22;43673;51.058;3.734;2023-04-06T04:10:19;10.20;99.90
57843;DHT22;43673;51.058;3.734;2023-04-06T04:12:44;10.20;99.90
57843;DHT22;43673;51.058;3.734;2023-04-06T04:15:10;10.00;99.90
57843;DHT22;43673;51.058;3.734;2023-04-06T04:17:36;10.20;99.90
57843;DHT22;43673;51.058;3.734;2023-04-06T04:20:02;10.20;99.90
57843;DHT22;43673;51.058;3.734;2023-04-06T04:22:28;10.10;99.90
57843;DHT22;43673;51.058;3.734;2023-04-06T04:24:53;10.10;99.90
57843;DHT22;43673;51.058;3.734;2023-04-06T04:27:22;10.00;99.90
57843;DHT22;43673;51.058;3.734;2023-04-06T04:29:48;10.00;99.90
57843;DHT22;43673;51.058;3.734;2023-04-06T04:32:13;10.00;99.90
57843;DHT22;43673;51.058;3.734;2023-04-06T04:34:39;9.90;99.90
57843;DHT22;43673;51.058;3.734;2023-04-06T04:37:06;9.70;99.90
57843;DHT22;43673;51.058;3.734;2023-04-06T04:39:32;9.90;99.90
57843;DHT22;43673;51.058;3.734;2023-04-06T04:41:58;9.90;99.90
57843;DHT22;43673;51.058;3.734;2023-04-06T04:44:24;9.90;99.90
57843;DHT22;43673;51.058;3.734;2023-04-06T04:46:49;9.90;99.90
57843;DHT22;43673;51.058;3.734;2023-04-06T04:49:15;10.00;99.90
57843;DHT22;43673;51.058;3.734;2023-04-06T04:51:41;10.00;99.90
57843;DHT22;43673;51.058;3.734;2023-04-06T04:54:07;10.00;99.90
57843;DHT22;43673;51.058;3.734;2023-04-06T04:56:33;10.00;99.90
57843;DHT22;43673;51.058;3.734;2023-04-06T04:58:58;10.10;99.90
57843;DHT22;43673;51.058;3.734;2023-04-06T05:01:24;10.10;99.90
57843;DHT22;43673;51.058;3.734;2023-04-06T05:03:50;10.10;99.90
57843;DHT22;43673;51.058;3.734;2023-04-06T05:06:16;10.10;99.90
57843;DHT22;43673;51.058;3.734;2023-04-06T05:08:42;10.10;99.90
57843;DHT22;43673;51.058;3.734;2023-04-06T05:11:09;10.00;99.90
57843;DHT22;43673;51.058;3.734;2023-04-06T05:13:35;10.00;99.90
57843;DHT22;43673;51.058;3.734;2023-04-06T05:16:00;10.00;99.90
57843;DHT22;43673;51.058;3.734;2023-04-06T05:18:26;10.00;99.90
57843;DHT22;43673;51.058;3.734;2023-04-06T05:20:52;9.90;99.90
57843;DHT22;43673;51.058;3.734;2023-04-06T05:25:53;9.80;99.90
57843;DHT22;43673;51.058;3.734;2023-04-06T05:28:19;9.80;99.90
57843;DHT22;43673;51.058;3.734;2023-04-06T05:30:45;9.80;99.90
57843;DHT22;43673;51.058;3.734;2023-04-06T05:33:14;9.90;99.90
57843;DHT22;43673;51.058;3.734;2023-04-06T05:35:40;9.90;99.90
57843;DHT22;43673;51.058;3.734;2023-04-06T05:38:08;9.90;99.90
57843;DHT22;43673;51.058;3.734;2023-04-06T05:40:36;9.70;99.90
57843;DHT22;43673;51.058;3.734;2023-04-06T05:43:03;9.70;99.90
57843;DHT22;43673;51.058;3.734;2023-04-06T05:45:29;9.80;99.90
57843;DHT22;43673;51.058;3.734;2023-04-06T05:47:55;9.80;99.90
57843;DHT22;43673;51.058;3.734;2023-04-06T05:50:21;9.70;99.90
57843;DHT22;43673;51.058;3.734;2023-04-06T05:52:47;9.70;99.90
57843;DHT22;43673;51.058;3.734;2023-04-06T05:55:13;9.70;99.90
57843;DHT22;43673;51.058;3.734;2023-04-06T05:57:39;9.70;99.90
57843;DHT22;43673;51.058;3.734;2023-04-06T06:00:06;9.60;99.90
57843;DHT22;43673;51.058;3.734;2023-04-06T06:02:34;9.60;99.90
57843;DHT22;43673;51.058;3.734;2023-04-06T06:05:00;9.60;99.90
57843;DHT22;43673;51.058;3.734;2023-04-06T06:07:38;9.40;99.90
57843;DHT22;43673;51.058;3.734;2023-04-06T06:10:04;9.50;99.90
57843;DHT22;43673;51.058;3.734;2023-04-06T06:12:32;9.60;99.90
57843;DHT22;43673;51.058;3.734;2023-04-06T06:17:32;9.10;99.90
57843;DHT22;43673;51.058;3.734;2023-04-06T06:19:58;9.10;99.90
57843;DHT22;43673;51.058;3.734;2023-04-06T06:22:24;9.10;99.90
57843;DHT22;43673;51.058;3.734;2023-04-06T06:24:50;9.10;99.90
57843;DHT22;43673;51.058;3.734;2023-04-06T06:27:24;9.10;99.90
57843;DHT22;43673;51.058;3.734;2023-04-06T06:29:59;9.00;99.90
57843;DHT22;43673;51.058;3.734;2023-04-06T06:32:27;9.00;99.90
57843;DHT22;43673;51.058;3.734;2023-04-06T06:34:53;8.90;99.90
57843;DHT22;43673;51.058;3.734;2023-04-06T06:37:20;8.60;99.90
57843;DHT22;43673;51.058;3.734;2023-04-06T06:39:45;8.80;99.90
57843;DHT22;43673;51.058;3.734;2023-04-06T06:42:16;8.80;99.90
57843;DHT22;43673;51.058;3.734;2023-04-06T06:44:42;8.70;99.90
57843;DHT22;43673;51.058;3.734;2023-04-06T06:47:12;8.70;99.90
57843;DHT22;43673;51.058;3.734;2023-04-06T06:49:38;8.70;99.90
57843;DHT22;43673;51.058;3.734;2023-04-06T06:52:07;8.80;99.90
57843;DHT22;43673;51.058;3.734;2023-04-06T06:54:36;8.70;99.90
57843;DHT22;43673;51.058;3.734;2023-04-06T06:57:02;8.80;99.90
57843;DHT22;43673;51.058;3.734;2023-04-06T06:59:31;9.00;99.90
57843;DHT22;43673;51.058;3.734;2023-04-06T07:01:57;9.20;99.90
57843;DHT22;43673;51.058;3.734;2023-04-06T07:04:23;9.00;99.90
57843;DHT22;43673;51.058;3.734;2023-04-06T07:06:48;9.00;99.90
57843;DHT22;43673;51.058;3.734;2023-04-06T07:09:14;9.00;99.90
57843;DHT22;43673;51.058;3.734;2023-04-06T07:11:40;8.90;99.90
57843;DHT22;43673;51.058;3.734;2023-04-06T07:14:06;9.00;99.90
57843;DHT22;43673;51.058;3.734;2023-04-06T07:16:35;9.00;99.90
57843;DHT22;43673;51.058;3.734;2023-04-06T07:21:36;9.10;99.90
57843;DHT22;43673;51.058;3.734;2023-04-06T07:24:02;9.10;99.90
57843;DHT22;43673;51.058;3.734;2023-04-06T07:26:28;9.20;99.90
57843;DHT22;43673;51.058;3.734;2023-04-06T07:28:55;9.30;99.90
57843;DHT22;43673;51.058;3.734;2023-04-06T07:31:21;9.20;99.90
57843;DHT22;43673;51.058;3.734;2023-04-06T07:33:46;9.20;99.90
57843;DHT22;43673;51.058;3.734;2023-04-06T07:47:18;9.10;99.90
57843;DHT22;43673;51.058;3.734;2023-04-06T07:49:44;9.10;99.90
57843;DHT22;43673;51.058;3.734;2023-04-06T07:54:46;9.10;99.90
57843;DHT22;43673;51.058;3.734;2023-04-06T07:57:12;9.10;99.90
57843;DHT22;43673;51.058;3.734;2023-04-06T07:59:37;9.10;99.90
57843;DHT22;43673;51.058;3.734;2023-04-06T08:02:03;9.20;99.90
57843;DHT22;43673;51.058;3.734;2023-04-06T08:04:29;9.10;99.90
57843;DHT22;43673;51.058;3.734;2023-04-06T08:06:55;9.20;99.90
57843;DHT22;43673;51.058;3.734;2023-04-06T08:09:21;9.10;99.90
57843;DHT22;43673;51.058;3.734;2023-04-06T08:11:47;9.20;99.90
57843;DHT22;43673;51.058;3.734;2023-04-06T08:14:14;9.10;99.90
57843;DHT22;43673;51.058;3.734;2023-04-06T08:16:41;9.10;99.90
57843;DHT22;43673;51.058;3.734;2023-04-06T08:19:06;9.10;99.90
57843;DHT22;43673;51.058;3.734;2023-04-06T08:21:38;9.20;99.90
57843;DHT22;43673;51.058;3.734;2023-04-06T08:24:05;9.30;99.90
57843;DHT22;43673;51.058;3.734;2023-04-06T08:26:32;9.40;99.90
57843;DHT22;43673;51.058;3.734;2023-04-06T08:28:57;9.40;99.90
57843;DHT22;43673;51.058;3.734;2023-04-06T08:31:23;9.40;99.90
57843;DHT22;43673;51.058;3.734;2023-04-06T08:33:49;9.30;99.90
57843;DHT22;43673;51.058;3.734;2023-04-06T08:36:15;9.30;99.90
57843;DHT22;43673;51.058;3.734;2023-04-06T08:38:42;9.50;99.90
57843;DHT22;43673;51.058;3.734;2023-04-06T08:41:12;9.30;99.90
57843;DHT22;43673;51.058;3.734;2023-04-06T08:43:44;9.30;99.90
57843;DHT22;43673;51.058;3.734;2023-04-06T08:46:17;9.40;99.90
57843;DHT22;43673;51.058;3.734;2023-04-06T08:48:43;9.40;99.90
57843;DHT22;43673;51.058;3.734;2023-04-06T08:51:11;9.30;99.90
57843;DHT22;43673;51.058;3.734;2023-04-06T08:53:37;9.30;99.90
57843;DHT22;43673;51.058;3.734;2023-04-06T08:56:04;9.30;99.90
57843;DHT22;43673;51.058;3.734;2023-04-06T08:58:37;9.30;99.90
57843;DHT22;43673;51.058;3.734;2023-04-06T09:01:09;9.30;99.90
57843;DHT22;43673;51.058;3.734;2023-04-06T09:03:38;9.50;99.90
57843;DHT22;43673;51.058;3.734;2023-04-06T09:06:11;9.60;99.90
57843;DHT22;43673;51.058;3.734;2023-04-06T09:08:41;9.60;99.90
57843;DHT22;43673;51.058;3.734;2023-04-06T09:11:08;9.60;99.90
57843;DHT22;43673;51.058;3.734;2023-04-06T09:13:48;9.60;99.90
57843;DHT22;43673;51.058;3.734;2023-04-06T09:16:15;9.80;99.90
57843;DHT22;43673;51.058;3.734;2023-04-06T09:18:41;9.90;99.90
57843;DHT22;43673;51.058;3.734;2023-04-06T09:21:11;9.90;99.90
57843;DHT22;43673;51.058;3.734;2023-04-06T09:24:06;10.10;99.90
57843;DHT22;43673;51.058;3.734;2023-04-06T09:26:47;10.30;99.90
57843;DHT22;43673;51.058;3.734;2023-04-06T09:29:26;10.20;99.90
57843;DHT22;43673;51.058;3.734;2023-04-06T09:31:52;10.00;99.90
57843;DHT22;43673;51.058;3.734;2023-04-06T09:34:22;9.90;99.90
57843;DHT22;43673;51.058;3.734;2023-04-06T09:36:49;9.70;99.90
57843;DHT22;43673;51.058;3.734;2023-04-06T09:39:15;9.70;99.90
57843;DHT22;43673;51.058;3.734;2023-04-06T09:41:41;9.70;99.90
57843;DHT22;43673;51.058;3.734;2023-04-06T09:44:16;9.80;99.90
57843;DHT22;43673;51.058;3.734;2023-04-06T09:46:46;9.80;99.90
57843;DHT22;43673;51.058;3.734;2023-04-06T09:49:15;9.70;99.90
57843;DHT22;43673;51.058;3.734;2023-04-06T09:52:08;9.70;99.90
57843;DHT22;43673;51.058;3.734;2023-04-06T09:54:37;9.60;99.90
57843;DHT22;43673;51.058;3.734;2023-04-06T09:57:20;9.50;99.90
57843;DHT22;43673;51.058;3.734;2023-04-06T10:00:05;9.60;99.90
57843;DHT22;43673;51.058;3.734;2023-04-06T10:03:13;9.60;99.90
57843;DHT22;43673;51.058;3.734;2023-04-06T10:05:57;9.80;99.90
57843;DHT22;43673;51.058;3.734;2023-04-06T10:08:28;9.70;99.90
57843;DHT22;43673;51.058;3.734;2023-04-06T10:10:55;9.70;99.90
57843;DHT22;43673;51.058;3.734;2023-04-06T10:13:24;9.70;99.90
57843;DHT22;43673;51.058;3.734;2023-04-06T10:15:52;9.80;99.90
57843;DHT22;43673;51.058;3.734;2023-04-06T10:18:26;9.70;99.90
57843;DHT22;43673;51.058;3.734;2023-04-06T10:21:19;9.70;99.90
57843;DHT22;43673;51.058;3.734;2023-04-06T10:23:59;9.50;99.90
57843;DHT22;43673;51.058;3.734;2023-04-06T10:26:28;9.60;99.90
57843;DHT22;43673;51.058;3.734;2023-04-06T10:36:43;9.50;99.90
57843;DHT22;43673;51.058;3.734;2023-04-06T10:39:08;9.40;99.90
57843;DHT22;43673;51.058;3.734;2023-04-06T10:41:44;9.60;99.90
57843;DHT22;43673;51.058;3.734;2023-04-06T10:44:22;9.70;99.90
57843;DHT22;43673;51.058;3.734;2023-04-06T10:46:56;9.60;99.90
57843;DHT22;43673;51.058;3.734;2023-04-06T10:49:22;9.60;99.90
57843;DHT22;43673;51.058;3.734;2023-04-06T10:51:54;9.60;99.90
57843;DHT22;43673;51.058;3.734;2023-04-06T10:54:24;9.70;99.90
57843;DHT22;43673;51.058;3.734;2023-04-06T10:56:51;9.80;99.90
57843;DHT22;43673;51.058;3.734;2023-04-06T10:59:23;9.90;99.90
57843;DHT22;43673;51.058;3.734;2023-04-06T11:01:50;10.00;99.90
57843;DHT22;43673;51.058;3.734;2023-04-06T11:04:19;10.00;99.90
57843;DHT22;43673;51.058;3.734;2023-04-06T11:06:50;10.00;99.90
57843;DHT22;43673;51.058;3.734;2023-04-06T11:09:26;10.00;99.90
57843;DHT22;43673;51.058;3.734;2023-04-06T11:11:52;10.00;99.90
57843;DHT22;43673;51.058;3.734;2023-04-06T11:14:18;10.10;99.90
57843;DHT22;43673;51.058;3.734;2023-04-06T11:16:49;10.10;99.90
57843;DHT22;43673;51.058;3.734;2023-04-06T11:19:15;10.10;99.90
57843;DHT22;43673;51.058;3.734;2023-04-06T11:21:43;10.10;99.90
57843;DHT22;43673;51.058;3.734;2023-04-06T11:24:17;10.10;99.90
57843;DHT22;43673;51.058;3.734;2023-04-06T11:26:47;10.10;99.90
57843;DHT22;43673;51.058;3.734;2023-04-06T11:29:26;10.20;99.90
57843;DHT22;43673;51.058;3.734;2023-04-06T11:31:54;10.20;99.90
57843;DHT22;43673;51.058;3.734;2023-04-06T11:34:24;9.90;99.90
57843;DHT22;43673;51.058;3.734;2023-04-06T11:37:01;9.90;99.90
57843;DHT22;43673;51.058;3.734;2023-04-06T11:39:32;9.90;99.90
57843;DHT22;43673;51.058;3.734;2023-04-06T11:42:01;10.00;99.90
57843;DHT22;43673;51.058;3.734;2023-04-06T11:44:35;10.00;99.90
57843;DHT22;43673;51.058;3.734;2023-04-06T11:47:02;10.10;99.90
57843;DHT22;43673;51.058;3.734;2023-04-06T11:49:38;10.20;99.90
57843;DHT22;43673;51.058;3.734;2023-04-06T11:52:24;10.30;99.90
57843;DHT22;43673;51.058;3.734;2023-04-06T11:54:53;10.40;99.90
57843;DHT22;43673;51.058;3.734;2023-04-06T11:57:22;10.40;99.90
57843;DHT22;43673;51.058;3.734;2023-04-06T11:59:51;10.40;99.90
57843;DHT22;43673;51.058;3.734;2023-04-06T12:02:22;10.50;99.90
57843;DHT22;43673;51.058;3.734;2023-04-06T12:04:54;10.40;99.90
57843;DHT22;43673;51.058;3.734;2023-04-06T12:07:20;10.50;99.90
57843;DHT22;43673;51.058;3.734;2023-04-06T12:09:46;10.60;99.90
57843;DHT22;43673;51.058;3.734;2023-04-06T12:12:12;10.70;99.90
57843;DHT22;43673;51.058;3.734;2023-04-06T12:14:38;10.50;99.90
57843;DHT22;43673;51.058;3.734;2023-04-06T12:19:39;10.70;99.90
57843;DHT22;43673;51.058;3.734;2023-04-06T12:22:06;10.70;99.90
57843;DHT22;43673;51.058;3.734;2023-04-06T12:24:31;10.80;99.90
57843;DHT22;43673;51.058;3.734;2023-04-06T12:26:57;10.90;99.90
57843;DHT22;43673;51.058;3.734;2023-04-06T12:29:24;10.80;99.90
57843;DHT22;43673;51.058;3.734;2023-04-06T12:31:56;10.90;99.90
57843;DHT22;43673;51.058;3.734;2023-04-06T12:34:22;10.80;99.90
57843;DHT22;43673;51.058;3.734;2023-04-06T12:36:48;10.70;99.90
57843;DHT22;43673;51.058;3.734;2023-04-06T12:39:15;10.90;99.90
57843;DHT22;43673;51.058;3.734;2023-04-06T12:41:42;10.80;99.90
57843;DHT22;43673;51.058;3.734;2023-04-06T12:44:08;10.70;99.90
57843;DHT22;43673;51.058;3.734;2023-04-06T12:46:34;10.60;99.90
57843;DHT22;43673;51.058;3.734;2023-04-06T12:49:09;10.80;99.90
57843;DHT22;43673;51.058;3.734;2023-04-06T12:51:38;10.90;99.90
57843;DHT22;43673;51.058;3.734;2023-04-06T12:54:04;10.90;99.90
57843;DHT22;43673;51.058;3.734;2023-04-06T12:56:45;10.90;99.90
57843;DHT22;43673;51.058;3.734;2023-04-06T12:59:17;10.90;99.90
57843;DHT22;43673;51.058;3.734;2023-04-06T13:02:01;10.90;99.90
57843;DHT22;43673;51.058;3.734;2023-04-06T13:04:32;10.90;99.90
57843;DHT22;43673;51.058;3.734;2023-04-06T13:07:10;10.80;99.90
57843;DHT22;43673;51.058;3.734;2023-04-06T13:09:36;11.00;99.90
57843;DHT22;43673;51.058;3.734;2023-04-06T13:12:02;11.10;99.90
57843;DHT22;43673;51.058;3.734;2023-04-06T13:14:29;11.00;99.90
57843;DHT22;43673;51.058;3.734;2023-04-06T13:16:56;10.90;99.90
57843;DHT22;43673;51.058;3.734;2023-04-06T13:19:23;10.90;99.90
57843;DHT22;43673;51.058;3.734;2023-04-06T13:21:50;11.10;99.90
57843;DHT22;43673;51.058;3.734;2023-04-06T13:24:16;11.10;99.90
57843;DHT22;43673;51.058;3.734;2023-04-06T13:26:42;11.30;99.90
57843;DHT22;43673;51.058;3.734;2023-04-06T13:29:10;11.20;99.90
57843;DHT22;43673;51.058;3.734;2023-04-06T13:31:36;11.50;99.90
57843;DHT22;43673;51.058;3.734;2023-04-06T13:34:02;11.50;99.90
57843;DHT22;43673;51.058;3.734;2023-04-06T13:36:28;11.60;99.90
57843;DHT22;43673;51.058;3.734;2023-04-06T13:38:54;11.60;99.90
57843;DHT22;43673;51.058;3.734;2023-04-06T13:41:22;11.60;99.90
57843;DHT22;43673;51.058;3.734;2023-04-06T13:43:48;11.50;99.90
57843;DHT22;43673;51.058;3.734;2023-04-06T13:46:15;11.40;99.90
57843;DHT22;43673;51.058;3.734;2023-04-06T13:48:42;11.50;99.90
57843;DHT22;43673;51.058;3.734;2023-04-06T13:51:12;11.50;99.90
57843;DHT22;43673;51.058;3.734;2023-04-06T13:53:39;11.60;99.90
57843;DHT22;43673;51.058;3.734;2023-04-06T13:56:05;11.70;99.90
57843;DHT22;43673;51.058;3.734;2023-04-06T13:58:32;11.80;99.90
57843;DHT22;43673;51.058;3.734;2023-04-06T14:01:07;11.70;99.90
57843;DHT22;43673;51.058;3.734;2023-04-06T14:03:35;11.80;99.90
57843;DHT22;43673;51.058;3.734;2023-04-06T14:06:09;12.10;99.90
57843;DHT22;43673;51.058;3.734;2023-04-06T14:08:35;11.90;99.90
57843;DHT22;43673;51.058;3.734;2023-04-06T14:11:01;12.00;99.90
57843;DHT22;43673;51.058;3.734;2023-04-06T14:13:26;12.00;99.90
57843;DHT22;43673;51.058;3.734;2023-04-06T14:15:53;12.10;99.90
57843;DHT22;43673;51.058;3.734;2023-04-06T14:18:20;12.00;99.90
57843;DHT22;43673;51.058;3.734;2023-04-06T14:20:54;12.10;99.90
57843;DHT22;43673;51.058;3.734;2023-04-06T14:23:20;12.00;99.90
57843;DHT22;43673;51.058;3.734;2023-04-06T14:25:46;12.10;99.90
57843;DHT22;43673;51.058;3.734;2023-04-06T14:28:12;12.10;99.90
57843;DHT22;43673;51.058;3.734;2023-04-06T14:30:38;12.10;99.90
57843;DHT22;43673;51.058;3.734;2023-04-06T14:33:04;12.10;99.90
57843;DHT22;43673;51.058;3.734;2023-04-06T14:35:29;12.10;99.90
57843;DHT22;43673;51.058;3.734;2023-04-06T14:37:58;12.30;99.90
57843;DHT22;43673;51.058;3.734;2023-04-06T14:40:24;12.50;99.90
57843;DHT22;43673;51.058;3.734;2023-04-06T14:42:50;12.60;99.90
57843;DHT22;43673;51.058;3.734;2023-04-06T14:45:17;12.70;99.90
57843;DHT22;43673;51.058;3.734;2023-04-06T14:47:44;12.80;99.90
57843;DHT22;43673;51.058;3.734;2023-04-06T14:50:10;12.90;99.90
57843;DHT22;43673;51.058;3.734;2023-04-06T14:52:36;12.80;99.90
57843;DHT22;43673;51.058;3.734;2023-04-06T14:55:05;12.80;99.90
57843;DHT22;43673;51.058;3.734;2023-04-06T14:57:31;12.80;99.90
57843;DHT22;43673;51.058;3.734;2023-04-06T14:59:58;12.80;99.90
57843;DHT22;43673;51.058;3.734;2023-04-06T15:02:24;12.80;99.90
57843;DHT22;43673;51.058;3.734;2023-04-06T15:04:49;12.80;99.90
57843;DHT22;43673;51.058;3.734;2023-04-06T15:07:15;12.80;99.90
57843;DHT22;43673;51.058;3.734;2023-04-06T15:09:42;12.90;99.90
57843;DHT22;43673;51.058;3.734;2023-04-06T15:12:07;13.00;99.90
57843;DHT22;43673;51.058;3.734;2023-04-06T15:14:33;13.20;99.90
57843;DHT22;43673;51.058;3.734;2023-04-06T15:16:59;13.40;99.90
57843;DHT22;43673;51.058;3.734;2023-04-06T15:19:25;13.50;99.90
57843;DHT22;43673;51.058;3.734;2023-04-06T15:21:52;13.50;99.90
57843;DHT22;43673;51.058;3.734;2023-04-06T15:24:18;13.80;99.90
57843;DHT22;43673;51.058;3.734;2023-04-06T15:26:43;13.80;99.90
57843;DHT22;43673;51.058;3.734;2023-04-06T15:29:11;13.90;99.90
57843;DHT22;43673;51.058;3.734;2023-04-06T15:31:37;13.80;99.90
57843;DHT22;43673;51.058;3.734;2023-04-06T15:34:05;14.00;99.90
57843;DHT22;43673;51.058;3.734;2023-04-06T15:36:48;14.10;99.90
57843;DHT22;43673;51.058;3.734;2023-04-06T15:39:14;14.00;99.90
57843;DHT22;43673;51.058;3.734;2023-04-06T15:41:45;14.00;99.90
57843;DHT22;43673;51.058;3.734;2023-04-06T15:44:11;13.80;99.90
57843;DHT22;43673;51.058;3.734;2023-04-06T15:49:46;13.30;99.90
57843;DHT22;43673;51.058;3.734;2023-04-06T15:52:15;13.10;99.90
57843;DHT22;43673;51.058;3.734;2023-04-06T15:55:02;13.10;99.90
57843;DHT22;43673;51.058;3.734;2023-04-06T15:57:32;13.10;99.90
57843;DHT22;43673;51.058;3.734;2023-04-06T16:00:04;13.20;99.90
57843;DHT22;43673;51.058;3.734;2023-04-06T16:02:36;13.20;99.90
57843;DHT22;43673;51.058;3.734;2023-04-06T16:05:02;13.50;99.90
57843;DHT22;43673;51.058;3.734;2023-04-06T16:10:07;13.40;99.90
57843;DHT22;43673;51.058;3.734;2023-04-06T16:12:35;13.30;99.90
57843;DHT22;43673;51.058;3.734;2023-04-06T16:15:04;13.30;99.90
57843;DHT22;43673;51.058;3.734;2023-04-06T16:17:30;13.40;99.90